• Join FlightAware (Why Join?)
  • Login
  • US Flag 
08:58PM EDT


 

Airport Tracker/Info


-or-


 

Live Flight TrackerFlight Track Log ✈ RPA3159 ✈ 05-Jul-2013 ✈ KBTV - KPHL

Flight Track Log - Related Links

Times and Time Zones

All times are in EDT time to prevent confusion due to time zone crossing. See the RPA3159 flight status page for this flight to view local times or setup timezone preferences in your user account.

Time Position Orientation Groundspeed Altitude Reporting Facility
EDT Latitude Longitude Course Direction KTS MPH feet Rate Location/Type
11:40AM 44.2016 -73.2500 180° South  Level FlightAware Approximate
11:40AM 44.3094 -73.1017 195° South 294 338 6,800  Level Boston Center
11:41AM 44.1127 -73.2828 195° South  Level FlightAware Approximate
11:41AM 44.2303 -73.0803 169° South 299 344 9,900  Level Boston Center
11:42AM 44.0234 -73.3144 194° South  Level FlightAware Approximate
11:42AM 44.1511 -73.1056 193° South 291 335 11,900  Level Boston Center
11:43AM 43.9339 -73.3443 193° South  Level FlightAware Approximate
11:43AM 44.0653 -73.1481 200° South 312 359 14,000  Level Boston Center
11:44AM 43.8449 -73.3770 195° South  Level FlightAware Approximate
11:44AM 43.9714 -73.1958 200° South 342 394 15,800  Level Boston Center
11:45AM 43.7560 -73.4104 195° South  Level FlightAware Approximate
11:45AM 43.8772 -73.2436 200° South 361 415 17,800  Level Boston Center
11:46AM 43.6671 -73.4436 195° South  Level FlightAware Approximate
11:46AM 43.7811 -73.2914 200° South 366 421 19,300  Level Boston Center
11:47AM 43.6806 -73.3444 201° Southwest 383 441 21,100 1,500 Climbing Boston Center
11:48AM 43.5864 -73.3889 199° South 390 449 22,400 1,320 Climbing Boston Center
11:49AM 43.4819 -73.4386 199° South 396 456 23,800 1,500 Climbing Boston Center
11:50AM 43.3811 -73.5114 208° Southwest 401 461 25,500 1,080 Climbing Boston Center
11:51AM 43.3008 -73.6125 223° Southwest 401 461 26,000 240 Climbing Boston Center
11:52AM 43.2081 -73.7306 223° Southwest 407 468 26,000  Level Boston Center
11:53AM 43.1214 -73.8339 221° Southwest 418 481 26,000  Level Boston Center
11:54AM 43.0453 -73.9231 221° Southwest 418 481 26,000  Level Boston Center
11:55AM 42.9625 -74.0261 222° Southwest 413 475 26,000  Level Boston Center
11:56AM 42.8756 -74.1286 221° Southwest 418 481 26,000  Level Boston Center
11:57AM 42.7928 -74.2339 223° Southwest 418 481 26,000 -60 Level Boston Center
11:58AM 42.7056 -74.3386 221° Southwest 418 481 25,900 -480 Descending Boston Center
11:59AM 42.6183 -74.4406 221° Southwest 418 481 25,100 -480 Descending Boston Center
12:00PM 42.5308 -74.5447 221° Southwest 418 481 25,000 -60 Descending Boston Center
12:01PM 42.4436 -74.6486 221° Southwest 423 487 25,000  Level Boston Center
12:02PM 42.3581 -74.7497 221° Southwest 423 487 25,000 -240 Level Boston Center
12:04PM 42.2175 -74.9122 221° Southwest 416 479 24,500 -960 Descending New York Center
12:05PM 42.1333 -74.9964 217° Southwest 421 484 22,600 -1,920 Descending New York Center
12:06PM 42.0369 -75.0767 212° Southwest 421 484 20,800 -1,860 Descending New York Center
12:07PM 41.9358 -75.1594 211° Southwest 407 468 19,000 -900 Descending New York Center
12:08PM 41.8436 -75.2339 211° Southwest 388 447 19,000 -240 Level New York Center
12:09PM 41.7744 -75.3044 217° Southwest 375 432 18,600 -1,020 Descending New York Center
12:10PM 41.7247 -75.4039 236° Southwest 334 384 17,000 -1,440 Descending New York Center
12:11PM 41.6706 -75.5111 236° Southwest 322 371 15,700 -1,080 Descending New York Center
12:12PM 41.6208 -75.6075 235° Southwest 315 362 14,900 -1,200 Descending New York Center
12:13PM 41.5697 -75.6814 227° Southwest 315 362 13,400 -1,440 Descending New York Center
12:14PM 41.4819 -75.6944 186° South 298 343 12,000 -720 Descending New York Center
12:15PM 41.3819 -75.6925 179° South 321 369 12,000  Level New York Center
12:16PM 41.2842 -75.6911 179° South 346 398 12,000  Level New York Center
12:17PM 41.1758 -75.6886 179° South 364 419 12,000  Level New York Center
12:18PM 41.0781 -75.6869 179° South 364 419 12,000  Level New York Center
12:19PM 40.9781 -75.6881 180° South 364 419 12,000  Level New York Center
12:20PM 40.8803 -75.6836 178° South 364 419 12,000  Level New York Center
12:21PM 40.7864 -75.6386 160° South 359 413 12,000 -360 Level New York Center
12:22PM 40.7050 -75.5864 154° Southeast 359 413 11,300 -900 Descending New York Center
12:23PM 40.6033 -75.5244 155° Southeast 371 427 10,200 -660 Descending New York Center
12:24PM 40.5219 -75.4750 155° Southeast 355 409 10,000 -120 Descending New York Center
12:25PM 40.4467 -75.4292 155° Southeast 313 360 10,000 -480 Level New York Center
12:26PM 40.3794 -75.3919 157° South 299 344 9,100 -1,320 Descending New York Center
12:27PM 40.3100 -75.3517 156° South 288 331 7,400 -1,080 Descending New York Center
12:28PM 40.2347 -75.3061 155° Southeast 288 331 7,000 -300 Descending New York Center
12:29PM 40.1572 -75.2656 158° South 288 331 6,900 -540 Descending New York Center
12:30PM 40.0958 -75.2319 157° South 288 331 6,000 -480 Descending New York Center
12:31PM 40.0203 -75.1944 159° South 278 320 6,000  Level New York Center
12:32PM 39.9847 -75.1408 131° Southeast 213 245 6,000  Level New York Center
12:33PM 40.0000 -75.0333 79° East 219 252 6,000 -360 Level Philadelphia TRACON
12:34PM 40.0167 -74.9667 72° East 215 247 5,300 -540 Descending Philadelphia TRACON
12:35PM 40.0333 -74.9000 72° East 214 246 5,000 -180 Descending Philadelphia TRACON
12:36PM 40.0167 -74.8333 108° East 202 232 5,000  Level Philadelphia TRACON
12:37PM 39.9839 -74.8128 154° Southeast 154 177 5,000  Level New York Center
12:38PM 39.9322 -74.8017 171° South 159 183 5,000 -600 Level New York Center
12:39PM 39.9500 -74.8833 286° West 191 220 3,700 -960 Descending Philadelphia TRACON
12:40PM 39.9333 -74.9500 252° West 188 216 3,000 -540 Descending Philadelphia TRACON
12:41PM 39.9167 -75.0000 247° West 175 201 2,700 -300 Descending Philadelphia TRACON
12:42PM 39.9000 -75.0667 252° West 180 207 2,400 -660 Descending Philadelphia TRACON
12:43PM 39.9000 -75.1333 270° West 176 203 1,400 -900 Descending Philadelphia TRACON
12:44PM 39.8833 -75.1833 247° West 124 143 700 -720 Descending Philadelphia TRACON